createdAt,value
2023-02-14T00:00:56.184Z,21.40
2023-02-14T00:03:24.101Z,21.47
2023-02-14T00:05:52.213Z,18.70
2023-02-14T00:08:20.234Z,22.00
2023-02-14T00:10:47.942Z,25.90
2023-02-14T00:13:17.360Z,20.73
2023-02-14T00:15:44.548Z,20.97
2023-02-14T00:18:12.559Z,21.70
2023-02-14T00:20:40.238Z,19.60
2023-02-14T00:23:08.128Z,19.13
2023-02-14T00:25:35.894Z,20.60
2023-02-14T00:28:03.901Z,20.43
2023-02-14T00:30:32.992Z,22.23
2023-02-14T00:33:01.518Z,22.13
2023-02-14T00:35:29.291Z,22.20
2023-02-14T00:37:57.451Z,17.67
2023-02-14T00:40:25.073Z,21.97
2023-02-14T00:42:52.754Z,18.90
2023-02-14T00:45:23.711Z,20.80
2023-02-14T00:47:52.817Z,20.77
2023-02-14T00:50:20.720Z,21.10
2023-02-14T00:52:48.663Z,21.70
2023-02-14T00:55:17.965Z,18.80
2023-02-14T00:57:47.559Z,16.57
2023-02-14T01:00:16.267Z,18.00
2023-02-14T01:02:43.956Z,18.57
2023-02-14T01:05:13.082Z,16.90
2023-02-14T01:07:40.890Z,23.00
2023-02-14T01:10:09.087Z,26.27
2023-02-14T01:12:36.899Z,19.77
2023-02-14T01:15:04.828Z,33.80
2023-02-14T01:17:32.571Z,28.47
2023-02-14T01:20:00.226Z,19.93
2023-02-14T01:22:29.615Z,23.17
2023-02-14T01:24:57.265Z,20.40
2023-02-14T01:27:25.063Z,22.30
2023-02-14T01:29:52.914Z,21.70
2023-02-14T01:32:20.756Z,22.87
2023-02-14T01:34:48.463Z,20.80
2023-02-14T01:37:16.121Z,20.33
2023-02-14T01:39:46.012Z,25.47
2023-02-14T01:42:15.613Z,19.07
2023-02-14T01:45:00.369Z,21.33
2023-02-14T01:47:29.356Z,18.17
2023-02-14T01:50:00.326Z,22.13
2023-02-14T01:52:30.018Z,21.40
2023-02-14T01:55:00.164Z,18.77
2023-02-14T01:57:29.361Z,18.60
2023-02-14T02:00:19.331Z,19.87
2023-02-14T02:02:47.475Z,20.07
2023-02-14T02:05:16.264Z,18.70
2023-02-14T02:07:44.455Z,22.77
2023-02-14T02:10:13.618Z,20.73
2023-02-14T02:12:42.615Z,19.50
2023-02-14T02:15:10.902Z,20.93
2023-02-14T02:17:45.054Z,20.53
2023-02-14T02:20:39.817Z,28.70
2023-02-14T02:23:18.181Z,20.40
2023-02-14T02:26:02.936Z,23.13
2023-02-14T02:28:42.938Z,19.13
2023-02-14T02:31:27.442Z,21.40
2023-02-14T02:34:10.129Z,17.97
2023-02-14T02:36:52.296Z,18.30
2023-02-14T02:39:28.909Z,19.17
2023-02-14T02:42:02.644Z,21.70
2023-02-14T02:44:32.797Z,20.37
2023-02-14T02:47:03.771Z,21.10
2023-02-14T02:49:52.525Z,22.43
2023-02-14T02:52:42.504Z,20.13
2023-02-14T02:55:14.973Z,21.70
2023-02-14T02:57:42.684Z,21.43
2023-02-14T03:00:12.647Z,22.33
2023-02-14T03:02:56.849Z,20.13
2023-02-14T03:05:24.597Z,21.67
2023-02-14T03:07:54.200Z,25.80
2023-02-14T03:10:23.902Z,22.00
2023-02-14T03:13:05.689Z,26.30
2023-02-14T03:15:52.901Z,23.10
2023-02-14T03:18:27.343Z,19.37
2023-02-14T03:21:00.927Z,22.63
2023-02-14T03:23:35.977Z,19.97
2023-02-14T03:26:10.924Z,22.33
2023-02-14T03:28:43.776Z,21.70
2023-02-14T03:31:16.622Z,21.97
2023-02-14T03:33:47.671Z,20.57
2023-02-14T03:36:17.589Z,19.03
2023-02-14T03:38:50.055Z,22.60
2023-02-14T03:41:21.407Z,20.87
2023-02-14T03:43:52.172Z,18.67
2023-02-14T03:46:22.191Z,19.60
2023-02-14T03:48:52.881Z,18.67
2023-02-14T03:51:21.186Z,18.30
2023-02-14T03:53:53.066Z,18.50
2023-02-14T03:56:27.641Z,17.70
2023-02-14T03:58:57.162Z,18.27
2023-02-14T04:01:25.937Z,19.17
2023-02-14T04:03:55.228Z,21.13
2023-02-14T04:06:22.894Z,20.90
2023-02-14T04:08:52.267Z,24.43
2023-02-14T04:11:20.242Z,21.40
2023-02-14T04:13:47.936Z,20.30
2023-02-14T04:16:15.809Z,18.60
2023-02-14T04:19:01.033Z,19.97
2023-02-14T04:21:29.139Z,20.00
2023-02-14T04:23:58.145Z,18.93
2023-02-14T04:26:27.023Z,19.00
2023-02-14T04:28:54.650Z,20.27
2023-02-14T04:31:22.803Z,18.80
2023-02-14T04:33:51.506Z,17.93
2023-02-14T04:36:19.153Z,18.97
2023-02-14T04:38:46.763Z,18.43
2023-02-14T04:41:16.078Z,17.90
2023-02-14T04:43:43.793Z,17.93
2023-02-14T04:46:11.463Z,19.73
2023-02-14T04:48:39.184Z,17.97
2023-02-14T04:51:07.272Z,19.13
2023-02-14T04:53:40.133Z,18.80
2023-02-14T04:56:08.404Z,18.90
2023-02-14T04:58:37.398Z,19.60
2023-02-14T05:01:06.043Z,18.13
2023-02-14T05:03:33.967Z,19.00
2023-02-14T05:06:01.800Z,18.67
2023-02-14T05:08:29.561Z,18.93
2023-02-14T05:10:57.686Z,19.27
2023-02-14T05:13:26.074Z,19.97
2023-02-14T05:15:55.135Z,18.97
2023-02-14T05:18:24.640Z,18.73
2023-02-14T05:20:52.991Z,19.77
2023-02-14T05:23:20.944Z,19.20
2023-02-14T05:25:49.008Z,18.50
2023-02-14T05:28:17.640Z,19.83
2023-02-14T05:30:45.327Z,18.93
2023-02-14T05:33:14.607Z,20.00
2023-02-14T05:35:42.591Z,18.10
2023-02-14T05:38:10.293Z,19.07
2023-02-14T05:40:38.017Z,17.77
2023-02-14T05:43:05.837Z,18.20
2023-02-14T05:45:33.530Z,18.90
2023-02-14T05:48:01.542Z,20.07
2023-02-14T05:50:30.706Z,19.17
2023-02-14T05:53:00.090Z,21.17
2023-02-14T05:55:27.750Z,19.70
2023-02-14T05:57:56.269Z,21.93
2023-02-14T06:00:24.795Z,20.00
2023-02-14T06:02:52.725Z,20.37
2023-02-14T06:05:20.701Z,20.20
2023-02-14T06:07:51.294Z,18.90
2023-02-14T06:10:19.466Z,20.50
2023-02-14T06:12:48.902Z,18.20
2023-02-14T06:15:16.847Z,18.47
2023-02-14T06:17:44.536Z,18.93
2023-02-14T06:20:12.931Z,20.17
2023-02-14T06:22:40.618Z,18.90
2023-02-14T06:25:09.833Z,20.13
2023-02-14T06:27:37.732Z,19.00
2023-02-14T06:30:05.725Z,20.40
2023-02-14T06:32:34.190Z,19.73
2023-02-14T06:35:02.094Z,20.10
2023-02-14T06:37:29.774Z,20.17
2023-02-14T06:39:57.566Z,19.77
2023-02-14T06:42:27.162Z,18.13
2023-02-14T06:44:54.916Z,19.53
2023-02-14T06:47:22.548Z,19.70
2023-02-14T06:49:50.762Z,21.40
2023-02-14T06:52:18.397Z,22.20
2023-02-14T06:54:46.136Z,19.90
2023-02-14T06:57:14.012Z,19.87
2023-02-14T06:59:43.165Z,20.03
2023-02-14T07:02:11.497Z,18.93
2023-02-14T07:04:39.690Z,20.17
2023-02-14T07:07:07.423Z,20.60
2023-02-14T07:09:35.148Z,20.03
2023-02-14T07:12:03.451Z,20.03
2023-02-14T07:14:31.598Z,19.73
2023-02-14T07:17:00.830Z,18.67
2023-02-14T07:19:28.605Z,20.83
2023-02-14T07:21:56.633Z,19.97
2023-02-14T07:24:24.481Z,21.50
2023-02-14T07:26:52.084Z,21.20
2023-02-14T07:29:19.748Z,19.87
2023-02-14T07:31:47.465Z,20.30
2023-02-14T07:34:16.963Z,22.17
2023-02-14T07:36:45.430Z,22.40
2023-02-14T07:39:13.037Z,21.43
2023-02-14T07:41:40.862Z,21.60
2023-02-14T07:44:11.286Z,22.53
2023-02-14T07:46:39.014Z,20.40
2023-02-14T07:49:06.905Z,22.07
2023-02-14T07:51:36.555Z,21.50
2023-02-14T07:54:04.682Z,20.50
2023-02-14T07:56:32.377Z,21.50
2023-02-14T07:59:00.145Z,20.77
2023-02-14T08:01:27.929Z,20.87
2023-02-14T08:03:55.537Z,21.10
2023-02-14T08:06:24.112Z,20.93
2023-02-14T08:08:53.052Z,21.30
2023-02-14T08:11:34.662Z,20.37
2023-02-14T08:14:02.377Z,21.80
2023-02-14T08:16:30.192Z,21.63
2023-02-14T08:18:58.217Z,22.07
2023-02-14T08:21:25.861Z,20.60
2023-02-14T08:23:55.386Z,21.80
2023-02-14T08:26:23.399Z,21.10
2023-02-14T08:28:51.135Z,21.30
2023-02-14T08:31:34.473Z,20.70
2023-02-14T08:34:04.115Z,21.07
2023-02-14T08:36:32.078Z,20.57
2023-02-14T08:39:01.199Z,22.30
2023-02-14T08:41:29.196Z,21.40
2023-02-14T08:43:57.396Z,28.47
2023-02-14T08:46:25.105Z,23.93
2023-02-14T08:48:53.452Z,23.87
2023-02-14T08:51:22.064Z,23.50
2023-02-14T08:53:51.318Z,26.60
2023-02-14T08:56:22.586Z,22.73
2023-02-14T08:58:53.082Z,22.60
2023-02-14T09:01:21.264Z,21.43
2023-02-14T09:03:49.368Z,22.40
2023-02-14T09:06:17.939Z,21.90
2023-02-14T09:08:46.518Z,22.20
2023-02-14T09:11:15.821Z,22.23
2023-02-14T09:13:45.318Z,22.40
2023-02-14T09:16:16.745Z,22.00
2023-02-14T09:18:44.763Z,22.73
2023-02-14T09:21:14.506Z,22.37
2023-02-14T09:23:43.374Z,21.73
2023-02-14T09:26:11.955Z,23.50
2023-02-14T09:28:39.824Z,21.53
2023-02-14T09:31:13.261Z,21.63
2023-02-14T09:33:41.379Z,22.07
2023-02-14T09:36:12.562Z,21.40
2023-02-14T09:38:40.241Z,21.87
2023-02-14T09:41:09.286Z,21.67
2023-02-14T09:43:39.380Z,22.03
2023-02-14T09:46:08.015Z,22.43
2023-02-14T09:48:39.298Z,22.17
2023-02-14T09:51:08.547Z,22.77
2023-02-14T09:53:38.081Z,19.90
2023-02-14T09:56:09.575Z,22.50
2023-02-14T09:58:41.400Z,22.47
2023-02-14T10:01:14.458Z,21.37
2023-02-14T10:03:52.622Z,20.23
2023-02-14T10:06:28.147Z,22.00
2023-02-14T10:09:02.032Z,21.00
2023-02-14T10:11:30.141Z,20.40
2023-02-14T10:14:01.197Z,21.77
2023-02-14T10:16:32.839Z,22.20
2023-02-14T10:19:03.961Z,20.60
2023-02-14T10:21:35.128Z,22.73
2023-02-14T10:24:05.569Z,33.97
2023-02-14T10:26:36.249Z,21.70
2023-02-14T10:29:04.592Z,20.70
2023-02-14T10:31:36.585Z,21.53
2023-02-14T10:34:07.106Z,22.00
2023-02-14T10:36:55.629Z,24.07
2023-02-14T10:39:31.844Z,23.27
2023-02-14T10:42:01.212Z,21.70
2023-02-14T10:44:38.816Z,20.50
2023-02-14T10:47:11.045Z,21.90
2023-02-14T10:49:48.020Z,20.50
2023-02-14T10:52:19.723Z,20.37
2023-02-14T10:57:44.342Z,19.83
2023-02-14T11:00:18.285Z,20.60
2023-02-14T11:02:47.360Z,19.23
2023-02-14T11:05:26.089Z,17.40
2023-02-14T11:07:54.215Z,18.30
2023-02-14T11:10:25.476Z,18.30
2023-02-14T11:12:53.106Z,19.53
2023-02-14T11:15:22.919Z,19.07
2023-02-14T11:17:51.980Z,19.70
2023-02-14T11:20:26.616Z,17.83
2023-02-14T11:22:54.399Z,21.80
2023-02-14T11:25:23.335Z,18.13
2023-02-14T11:27:53.205Z,18.27
2023-02-14T11:30:24.073Z,18.03
2023-02-14T11:32:58.308Z,19.63
2023-02-14T11:35:34.144Z,17.27
2023-02-14T11:38:06.890Z,19.63
2023-02-14T11:40:35.838Z,19.07
2023-02-14T11:43:19.729Z,25.03
2023-02-14T11:45:48.477Z,21.40
2023-02-14T11:48:22.404Z,22.03
2023-02-14T11:51:00.902Z,19.33
2023-02-14T11:53:30.112Z,17.57
2023-02-14T11:56:00.721Z,19.13
2023-02-14T11:58:32.375Z,19.67
2023-02-14T12:01:01.570Z,20.00
2023-02-14T12:03:38.253Z,18.83
2023-02-14T12:06:11.494Z,17.90
2023-02-14T12:08:41.882Z,17.47
2023-02-14T12:11:20.302Z,19.13
2023-02-14T12:13:53.379Z,17.17
2023-02-14T12:16:27.430Z,18.43
2023-02-14T12:18:58.082Z,17.70
2023-02-14T12:21:37.755Z,17.67
2023-02-14T12:24:08.437Z,17.67
2023-02-14T12:26:37.529Z,17.60
2023-02-14T12:29:10.868Z,17.33
2023-02-14T12:31:38.703Z,18.47
2023-02-14T12:34:07.364Z,20.00
2023-02-14T12:36:49.096Z,18.03
2023-02-14T12:39:27.500Z,19.60
2023-02-14T12:42:02.931Z,17.53
2023-02-14T12:44:37.881Z,19.50
2023-02-14T12:47:11.895Z,16.93
2023-02-14T12:49:55.752Z,16.93
2023-02-14T12:52:38.448Z,18.63
2023-02-14T12:55:24.586Z,17.13
2023-02-14T12:57:55.428Z,19.47
2023-02-14T13:00:30.809Z,17.97
2023-02-14T13:03:16.466Z,19.00
2023-02-14T13:05:54.626Z,17.90
2023-02-14T13:08:31.082Z,18.17
2023-02-14T13:11:02.778Z,17.50
2023-02-14T13:13:34.295Z,16.60
2023-02-14T13:16:07.007Z,18.00
2023-02-14T13:18:39.461Z,17.80
2023-02-14T13:21:10.067Z,17.20
2023-02-14T13:23:41.665Z,19.23
2023-02-14T13:26:12.884Z,16.93
2023-02-14T13:28:51.081Z,21.13
2023-02-14T13:31:20.073Z,16.40
2023-02-14T13:33:50.591Z,16.60
2023-02-14T13:36:18.397Z,17.53
2023-02-14T13:38:50.893Z,18.30
2023-02-14T13:41:19.995Z,18.30
2023-02-14T13:43:56.481Z,19.47
2023-02-14T13:46:39.162Z,17.40
2023-02-14T13:49:18.620Z,18.30
2023-02-14T13:51:47.499Z,17.77
2023-02-14T13:54:24.537Z,19.43
2023-02-14T13:56:52.235Z,20.20
2023-02-14T13:59:28.088Z,18.57
2023-02-14T14:01:57.265Z,17.67
2023-02-14T14:04:35.877Z,18.43
2023-02-14T14:07:17.533Z,19.03
2023-02-14T14:10:00.214Z,18.23
2023-02-14T14:12:43.774Z,18.63
2023-02-14T14:15:19.322Z,18.47
2023-02-14T14:18:05.880Z,18.10
2023-02-14T14:20:45.216Z,17.37
2023-02-14T14:23:33.372Z,17.83
2023-02-14T14:26:03.566Z,17.20
2023-02-14T14:28:32.916Z,16.80
2023-02-14T14:31:00.889Z,17.40
2023-02-14T14:33:30.139Z,16.43
2023-02-14T14:35:59.059Z,16.17
2023-02-14T14:38:27.867Z,16.00
2023-02-14T14:40:55.827Z,17.43
2023-02-14T14:43:27.350Z,16.67
2023-02-14T14:45:56.128Z,19.67
2023-02-14T14:48:28.649Z,15.97
2023-02-14T14:50:57.086Z,16.43
2023-02-14T14:53:27.553Z,18.87
2023-02-14T14:55:57.481Z,17.50
2023-02-14T14:58:34.925Z,18.67
2023-02-14T15:01:04.458Z,17.57
2023-02-14T15:03:32.151Z,16.97
2023-02-14T15:06:06.927Z,17.73
2023-02-14T15:08:34.799Z,21.20
2023-02-14T15:11:06.011Z,17.70
2023-02-14T15:13:49.894Z,17.47
2023-02-14T15:16:18.961Z,20.40
2023-02-14T15:18:46.896Z,20.00
2023-02-14T15:21:15.097Z,17.63
2023-02-14T15:23:43.996Z,17.93
2023-02-14T15:26:18.721Z,18.00
2023-02-14T15:28:54.461Z,19.70
2023-02-14T15:31:22.570Z,18.60
2023-02-14T15:33:50.376Z,18.80
2023-02-14T15:36:20.391Z,20.13
2023-02-14T15:38:48.389Z,20.00
2023-02-14T15:41:17.022Z,18.77
2023-02-14T15:43:44.910Z,18.83
2023-02-14T15:46:18.596Z,17.53
2023-02-14T15:48:46.874Z,18.20
2023-02-14T15:51:19.794Z,17.23
2023-02-14T15:53:51.041Z,18.83
2023-02-14T15:56:20.747Z,19.00
2023-02-14T15:58:49.438Z,19.73
2023-02-14T16:01:22.793Z,17.90
2023-02-14T16:03:52.590Z,18.90
2023-02-14T16:06:31.598Z,19.83
2023-02-14T16:08:59.650Z,18.77
2023-02-14T16:11:29.778Z,17.90
2023-02-14T16:13:59.027Z,17.67
2023-02-14T16:16:48.299Z,17.90
2023-02-14T16:19:31.113Z,17.00
2023-02-14T16:21:58.833Z,18.60
2023-02-14T16:24:26.536Z,17.23
2023-02-14T16:26:54.638Z,16.73
2023-02-14T16:29:22.820Z,16.60
2023-02-14T16:34:41.565Z,18.90
2023-02-14T16:37:10.264Z,17.47
2023-02-14T16:39:39.993Z,18.47
2023-02-14T16:42:12.936Z,16.90
2023-02-14T16:44:40.651Z,17.60
2023-02-14T16:47:12.160Z,19.13
2023-02-14T16:49:39.792Z,16.60
2023-02-14T16:52:07.595Z,17.47
2023-02-14T16:54:35.964Z,17.90
2023-02-14T16:57:04.733Z,17.37
2023-02-14T16:59:32.732Z,17.47
2023-02-14T17:02:00.667Z,23.77
2023-02-14T17:04:29.785Z,18.43
2023-02-14T17:06:58.282Z,19.13
2023-02-14T17:09:28.690Z,18.23
2023-02-14T17:11:57.952Z,17.77
2023-02-14T17:14:28.561Z,18.37
2023-02-14T17:16:57.397Z,16.77
2023-02-14T17:19:25.221Z,18.33
2023-02-14T17:21:54.611Z,17.40
2023-02-14T17:24:22.265Z,16.93
2023-02-14T17:26:49.932Z,17.60
2023-02-14T17:29:19.526Z,18.50
2023-02-14T17:31:47.318Z,16.77
2023-02-14T17:34:14.987Z,17.03
2023-02-14T17:36:42.859Z,16.60
2023-02-14T17:39:11.923Z,17.80
2023-02-14T17:41:40.395Z,18.30
2023-02-14T17:44:08.588Z,16.30
2023-02-14T17:46:36.478Z,18.77
2023-02-14T17:49:04.116Z,17.53
2023-02-14T17:51:32.536Z,17.60
2023-02-14T17:54:00.209Z,17.43
2023-02-14T17:56:32.630Z,19.70
2023-02-14T17:59:00.343Z,19.30
2023-02-14T18:01:31.219Z,18.43
2023-02-14T18:03:59.377Z,18.70
2023-02-14T18:06:27.064Z,19.13
2023-02-14T18:08:56.894Z,16.53
2023-02-14T18:11:26.050Z,18.33
2023-02-14T18:13:55.956Z,17.20
2023-02-14T18:16:24.827Z,18.47
2023-02-14T18:18:53.643Z,17.93
2023-02-14T18:21:21.730Z,18.87
2023-02-14T18:23:49.707Z,17.97
2023-02-14T18:26:19.203Z,17.30
2023-02-14T18:28:46.878Z,17.90
2023-02-14T18:31:18.000Z,17.63
2023-02-14T18:33:48.702Z,17.77
2023-02-14T18:36:18.176Z,17.90
2023-02-14T18:38:47.205Z,17.83
2023-02-14T18:41:15.466Z,19.63
2023-02-14T18:43:44.471Z,19.30
2023-02-14T18:46:13.380Z,19.63
2023-02-14T18:51:32.606Z,18.13
2023-02-14T18:54:01.187Z,17.27
2023-02-14T18:56:29.848Z,19.67
2023-02-14T18:58:59.150Z,19.47
2023-02-14T19:01:29.105Z,18.90
2023-02-14T19:03:59.776Z,19.20
2023-02-14T19:06:29.325Z,19.80
2023-02-14T19:08:57.421Z,19.90
2023-02-14T19:11:27.288Z,18.83
2023-02-14T19:13:56.475Z,19.37
2023-02-14T19:16:25.289Z,19.87
2023-02-14T19:18:54.221Z,21.47
2023-02-14T19:21:24.156Z,20.90
2023-02-14T19:23:53.042Z,19.47
2023-02-14T19:26:22.656Z,22.20
2023-02-14T19:28:50.892Z,21.07
2023-02-14T19:31:19.061Z,21.50
2023-02-14T19:33:51.785Z,23.67
2023-02-14T19:36:21.485Z,21.40
2023-02-14T19:38:52.902Z,21.07
2023-02-14T19:41:21.581Z,21.30
2023-02-14T19:43:51.353Z,24.63
2023-02-14T19:46:20.146Z,22.47
2023-02-14T19:48:48.727Z,22.37
2023-02-14T19:51:17.253Z,22.40
2023-02-14T19:53:45.107Z,23.83
2023-02-14T19:56:18.801Z,21.50
2023-02-14T19:58:47.173Z,22.80
2023-02-14T20:01:19.470Z,23.23
2023-02-14T20:03:47.481Z,25.07
2023-02-14T20:06:15.428Z,21.90
2023-02-14T20:08:43.126Z,21.70
2023-02-14T20:11:21.366Z,23.27
2023-02-14T20:13:49.073Z,22.00
2023-02-14T20:16:17.487Z,21.97
2023-02-14T20:21:34.586Z,22.83
2023-02-14T20:24:05.277Z,22.17
2023-02-14T20:26:35.184Z,22.70
2023-02-14T20:29:04.932Z,22.50
2023-02-14T20:31:39.138Z,23.80
2023-02-14T20:34:07.418Z,22.93
2023-02-14T20:36:35.057Z,23.43
2023-02-14T20:39:04.496Z,22.77
2023-02-14T20:41:34.426Z,23.50
2023-02-14T20:44:05.237Z,23.00
2023-02-14T20:46:33.254Z,22.07
2023-02-14T20:49:01.026Z,24.20
2023-02-14T20:51:29.200Z,23.13
2023-02-14T20:53:56.872Z,23.87
2023-02-14T20:56:25.085Z,23.27
2023-02-14T20:58:52.826Z,23.60
2023-02-14T21:01:22.609Z,21.60
2023-02-14T21:03:51.408Z,22.63
2023-02-14T21:06:19.686Z,22.50
2023-02-14T21:08:47.792Z,22.10
2023-02-14T21:11:16.461Z,22.70
2023-02-14T21:13:45.112Z,22.67
2023-02-14T21:16:14.891Z,22.77
2023-02-14T21:18:51.787Z,21.77
2023-02-14T21:21:21.099Z,23.07
2023-02-14T21:23:49.271Z,21.63
2023-02-14T21:26:17.022Z,22.53
2023-02-14T21:28:44.972Z,22.53
2023-02-14T21:31:14.180Z,24.23
2023-02-14T21:33:44.419Z,23.07
2023-02-14T21:36:14.243Z,21.70
2023-02-14T21:38:42.245Z,23.13
2023-02-14T21:41:11.104Z,22.73
2023-02-14T21:43:39.637Z,20.77
2023-02-14T21:46:08.154Z,19.67
2023-02-14T21:48:54.214Z,21.13
2023-02-14T21:51:23.821Z,21.40
2023-02-14T21:53:52.489Z,20.70
2023-02-14T21:56:21.009Z,20.90
2023-02-14T21:58:49.383Z,22.10
2023-02-14T22:01:17.816Z,21.07
2023-02-14T22:03:46.030Z,20.23
2023-02-14T22:06:14.281Z,21.07
2023-02-14T22:08:43.454Z,22.57
2023-02-14T22:11:12.719Z,21.43
2023-02-14T22:13:40.577Z,22.60
2023-02-14T22:16:13.295Z,22.17
2023-02-14T22:18:41.739Z,22.30
2023-02-14T22:21:11.435Z,23.13
2023-02-14T22:23:39.980Z,22.60
2023-02-14T22:26:13.600Z,22.63
2023-02-14T22:28:42.334Z,23.47
2023-02-14T22:31:10.106Z,22.93
2023-02-14T22:33:38.285Z,24.10
2023-02-14T22:36:06.930Z,26.33
2023-02-14T22:38:35.509Z,24.20
2023-02-14T22:41:06.845Z,25.70
2023-02-14T22:43:36.241Z,24.70
2023-02-14T22:46:05.527Z,33.03
2023-02-14T22:48:33.925Z,32.63
2023-02-14T22:51:08.465Z,22.80
2023-02-14T22:53:36.353Z,24.80
2023-02-14T22:56:12.080Z,22.73
2023-02-14T22:58:41.478Z,22.13
2023-02-14T23:01:13.452Z,22.63
2023-02-14T23:03:41.507Z,22.13
2023-02-14T23:06:09.216Z,22.90
2023-02-14T23:08:39.332Z,21.53
2023-02-14T23:11:08.132Z,21.67
2023-02-14T23:13:54.541Z,23.20
2023-02-14T23:16:40.975Z,21.80
2023-02-14T23:19:28.739Z,22.13
2023-02-14T23:21:56.456Z,21.83
2023-02-14T23:24:24.642Z,22.20
2023-02-14T23:26:52.424Z,21.70
2023-02-14T23:29:20.194Z,21.40
2023-02-14T23:31:50.913Z,21.90
2023-02-14T23:34:18.792Z,23.63
2023-02-14T23:36:47.017Z,22.20
2023-02-14T23:39:15.394Z,22.73
2023-02-14T23:41:49.080Z,23.80
2023-02-14T23:44:17.880Z,23.13
2023-02-14T23:46:45.866Z,23.87
2023-02-14T23:49:15.013Z,23.70
2023-02-14T23:51:43.605Z,24.17
2023-02-14T23:54:11.807Z,23.30
2023-02-14T23:56:40.513Z,23.00
2023-02-14T23:59:08.868Z,24.40
